sensor_id;sensor_type;location;lat;lon;timestamp;P1;durP1;ratioP1;P2;durP2;ratioP2
68315;SDS011;55508;54.368;18.406;2024-01-25T00:01:07;4.00;;;0.70;;
68315;SDS011;55508;54.368;18.406;2024-01-25T00:03:36;6.00;;;1.27;;
68315;SDS011;55508;54.368;18.406;2024-01-25T00:06:07;7.53;;;1.13;;
68315;SDS011;55508;54.368;18.406;2024-01-25T00:08:34;4.07;;;1.13;;
68315;SDS011;55508;54.368;18.406;2024-01-25T00:11:02;5.18;;;1.20;;
68315;SDS011;55508;54.368;18.406;2024-01-25T00:13:30;2.40;;;0.75;;
68315;SDS011;55508;54.368;18.406;2024-01-25T00:15:57;2.17;;;1.15;;
68315;SDS011;55508;54.368;18.406;2024-01-25T00:18:28;1.25;;;0.60;;
68315;SDS011;55508;54.368;18.406;2024-01-25T00:21:00;4.68;;;1.10;;
68315;SDS011;55508;54.368;18.406;2024-01-25T00:23:29;3.53;;;0.88;;
68315;SDS011;55508;54.368;18.406;2024-01-25T00:25:57;5.05;;;0.90;;
68315;SDS011;55508;54.368;18.406;2024-01-25T00:30:56;3.47;;;1.00;;
68315;SDS011;55508;54.368;18.406;2024-01-25T00:33:26;1.20;;;0.70;;
68315;SDS011;55508;54.368;18.406;2024-01-25T00:35:56;5.35;;;1.10;;
68315;SDS011;55508;54.368;18.406;2024-01-25T00:38:24;4.90;;;1.38;;
68315;SDS011;55508;54.368;18.406;2024-01-25T00:40:53;3.75;;;0.85;;
68315;SDS011;55508;54.368;18.406;2024-01-25T00:43:21;3.25;;;1.30;;
68315;SDS011;55508;54.368;18.406;2024-01-25T00:45:52;3.83;;;1.13;;
68315;SDS011;55508;54.368;18.406;2024-01-25T00:48:19;5.25;;;1.25;;
68315;SDS011;55508;54.368;18.406;2024-01-25T00:50:47;4.35;;;0.95;;
68315;SDS011;55508;54.368;18.406;2024-01-25T00:53:15;2.75;;;1.00;;
68315;SDS011;55508;54.368;18.406;2024-01-25T00:55:45;5.55;;;1.10;;
68315;SDS011;55508;54.368;18.406;2024-01-25T00:58:13;4.28;;;1.10;;
68315;SDS011;55508;54.368;18.406;2024-01-25T01:00:40;5.35;;;1.70;;
68315;SDS011;55508;54.368;18.406;2024-01-25T01:03:11;7.72;;;1.80;;
68315;SDS011;55508;54.368;18.406;2024-01-25T01:05:39;1.92;;;0.77;;
68315;SDS011;55508;54.368;18.406;2024-01-25T01:08:07;7.10;;;1.77;;
68315;SDS011;55508;54.368;18.406;2024-01-25T01:10:35;7.47;;;1.80;;
68315;SDS011;55508;54.368;18.406;2024-01-25T01:13:02;7.18;;;1.77;;
68315;SDS011;55508;54.368;18.406;2024-01-25T01:15:32;7.20;;;2.13;;
68315;SDS011;55508;54.368;18.406;2024-01-25T01:18:00;15.23;;;3.22;;
68315;SDS011;55508;54.368;18.406;2024-01-25T01:20:27;11.27;;;2.50;;
68315;SDS011;55508;54.368;18.406;2024-01-25T01:22:55;9.63;;;2.20;;
68315;SDS011;55508;54.368;18.406;2024-01-25T01:25:22;12.07;;;2.67;;
68315;SDS011;55508;54.368;18.406;2024-01-25T01:27:50;14.30;;;3.38;;
68315;SDS011;55508;54.368;18.406;2024-01-25T01:30:21;19.02;;;3.60;;
68315;SDS011;55508;54.368;18.406;2024-01-25T01:32:51;14.75;;;3.00;;
68315;SDS011;55508;54.368;18.406;2024-01-25T01:35:19;20.05;;;3.45;;
68315;SDS011;55508;54.368;18.406;2024-01-25T01:37:47;18.45;;;2.97;;
68315;SDS011;55508;54.368;18.406;2024-01-25T01:40:14;11.63;;;3.17;;
68315;SDS011;55508;54.368;18.406;2024-01-25T01:42:42;21.33;;;3.65;;
68315;SDS011;55508;54.368;18.406;2024-01-25T01:45:10;11.43;;;2.63;;
68315;SDS011;55508;54.368;18.406;2024-01-25T01:47:42;15.30;;;3.38;;
68315;SDS011;55508;54.368;18.406;2024-01-25T01:50:10;10.15;;;2.78;;
68315;SDS011;55508;54.368;18.406;2024-01-25T01:52:39;10.30;;;2.65;;
68315;SDS011;55508;54.368;18.406;2024-01-25T01:55:07;21.80;;;3.50;;
68315;SDS011;55508;54.368;18.406;2024-01-25T01:57:35;14.27;;;3.35;;
68315;SDS011;55508;54.368;18.406;2024-01-25T02:00:04;11.75;;;2.83;;
68315;SDS011;55508;54.368;18.406;2024-01-25T02:02:38;11.15;;;3.63;;
68315;SDS011;55508;54.368;18.406;2024-01-25T02:05:09;15.15;;;3.35;;
68315;SDS011;55508;54.368;18.406;2024-01-25T02:07:37;8.73;;;2.28;;
68315;SDS011;55508;54.368;18.406;2024-01-25T02:10:08;8.38;;;2.95;;
68315;SDS011;55508;54.368;18.406;2024-01-25T02:12:36;19.70;;;2.15;;
68315;SDS011;55508;54.368;18.406;2024-01-25T02:15:03;14.52;;;2.75;;
68315;SDS011;55508;54.368;18.406;2024-01-25T02:17:31;17.45;;;2.90;;
68315;SDS011;55508;54.368;18.406;2024-01-25T02:20:02;7.78;;;1.80;;
68315;SDS011;55508;54.368;18.406;2024-01-25T02:22:30;12.50;;;2.42;;
68315;SDS011;55508;54.368;18.406;2024-01-25T02:24:58;6.50;;;2.22;;
68315;SDS011;55508;54.368;18.406;2024-01-25T02:27:25;10.13;;;2.17;;
68315;SDS011;55508;54.368;18.406;2024-01-25T02:29:52;10.20;;;2.72;;
68315;SDS011;55508;54.368;18.406;2024-01-25T02:32:20;8.32;;;2.53;;
68315;SDS011;55508;54.368;18.406;2024-01-25T02:34:47;12.15;;;2.60;;
68315;SDS011;55508;54.368;18.406;2024-01-25T02:37:15;13.80;;;3.00;;
68315;SDS011;55508;54.368;18.406;2024-01-25T02:39:45;13.20;;;2.20;;
68315;SDS011;55508;54.368;18.406;2024-01-25T02:42:13;7.55;;;1.85;;
68315;SDS011;55508;54.368;18.406;2024-01-25T02:44:43;13.10;;;2.47;;
68315;SDS011;55508;54.368;18.406;2024-01-25T02:47:11;8.15;;;2.30;;
68315;SDS011;55508;54.368;18.406;2024-01-25T02:49:38;8.27;;;1.67;;
68315;SDS011;55508;54.368;18.406;2024-01-25T02:52:06;15.40;;;2.83;;
68315;SDS011;55508;54.368;18.406;2024-01-25T02:54:36;8.55;;;2.65;;
68315;SDS011;55508;54.368;18.406;2024-01-25T02:57:06;9.45;;;2.13;;
68315;SDS011;55508;54.368;18.406;2024-01-25T02:59:34;5.97;;;1.50;;
68315;SDS011;55508;54.368;18.406;2024-01-25T03:02:04;9.77;;;2.40;;
68315;SDS011;55508;54.368;18.406;2024-01-25T03:04:34;6.38;;;2.58;;
68315;SDS011;55508;54.368;18.406;2024-01-25T03:07:02;11.30;;;2.97;;
68315;SDS011;55508;54.368;18.406;2024-01-25T03:09:29;7.13;;;2.20;;
68315;SDS011;55508;54.368;18.406;2024-01-25T03:11:57;15.55;;;4.28;;
68315;SDS011;55508;54.368;18.406;2024-01-25T03:14:24;13.07;;;4.05;;
68315;SDS011;55508;54.368;18.406;2024-01-25T03:16:53;14.57;;;3.33;;
68315;SDS011;55508;54.368;18.406;2024-01-25T03:19:20;7.80;;;2.60;;
68315;SDS011;55508;54.368;18.406;2024-01-25T03:21:51;7.32;;;2.50;;
68315;SDS011;55508;54.368;18.406;2024-01-25T03:24:19;10.25;;;2.33;;
68315;SDS011;55508;54.368;18.406;2024-01-25T03:26:47;7.07;;;2.65;;
68315;SDS011;55508;54.368;18.406;2024-01-25T03:29:16;12.43;;;2.33;;
68315;SDS011;55508;54.368;18.406;2024-01-25T03:31:45;12.75;;;2.78;;
68315;SDS011;55508;54.368;18.406;2024-01-25T03:34:12;6.25;;;2.25;;
68315;SDS011;55508;54.368;18.406;2024-01-25T03:36:40;7.38;;;2.55;;
68315;SDS011;55508;54.368;18.406;2024-01-25T03:39:07;4.20;;;1.48;;
68315;SDS011;55508;54.368;18.406;2024-01-25T03:41:35;10.80;;;2.03;;
68315;SDS011;55508;54.368;18.406;2024-01-25T03:44:03;14.10;;;2.03;;
68315;SDS011;55508;54.368;18.406;2024-01-25T03:46:30;8.98;;;1.75;;
68315;SDS011;55508;54.368;18.406;2024-01-25T03:48:58;12.48;;;2.22;;
68315;SDS011;55508;54.368;18.406;2024-01-25T03:51:25;10.35;;;1.88;;
68315;SDS011;55508;54.368;18.406;2024-01-25T03:53:55;7.53;;;1.70;;
68315;SDS011;55508;54.368;18.406;2024-01-25T03:56:25;7.72;;;2.05;;
68315;SDS011;55508;54.368;18.406;2024-01-25T03:58:53;5.25;;;1.88;;
68315;SDS011;55508;54.368;18.406;2024-01-25T04:01:21;9.25;;;1.98;;
68315;SDS011;55508;54.368;18.406;2024-01-25T04:03:49;7.82;;;1.88;;
68315;SDS011;55508;54.368;18.406;2024-01-25T04:06:19;5.13;;;1.45;;
68315;SDS011;55508;54.368;18.406;2024-01-25T04:08:46;4.15;;;1.40;;
68315;SDS011;55508;54.368;18.406;2024-01-25T04:11:17;6.82;;;1.92;;
68315;SDS011;55508;54.368;18.406;2024-01-25T04:13:47;8.88;;;2.58;;
68315;SDS011;55508;54.368;18.406;2024-01-25T04:16:14;8.57;;;3.03;;
68315;SDS011;55508;54.368;18.406;2024-01-25T04:18:44;11.48;;;2.20;;
68315;SDS011;55508;54.368;18.406;2024-01-25T04:21:12;11.38;;;2.08;;
68315;SDS011;55508;54.368;18.406;2024-01-25T04:23:40;8.10;;;1.75;;
68315;SDS011;55508;54.368;18.406;2024-01-25T04:26:07;14.20;;;2.28;;
68315;SDS011;55508;54.368;18.406;2024-01-25T04:28:34;7.38;;;2.05;;
68315;SDS011;55508;54.368;18.406;2024-01-25T04:31:02;6.68;;;1.88;;
68315;SDS011;55508;54.368;18.406;2024-01-25T04:33:30;4.78;;;1.42;;
68315;SDS011;55508;54.368;18.406;2024-01-25T04:35:57;9.07;;;2.13;;
68315;SDS011;55508;54.368;18.406;2024-01-25T04:38:25;10.43;;;2.40;;
68315;SDS011;55508;54.368;18.406;2024-01-25T04:40:52;11.60;;;2.65;;
68315;SDS011;55508;54.368;18.406;2024-01-25T04:43:22;7.90;;;2.05;;
68315;SDS011;55508;54.368;18.406;2024-01-25T04:45:52;9.77;;;2.13;;
68315;SDS011;55508;54.368;18.406;2024-01-25T04:48:20;5.03;;;1.45;;
68315;SDS011;55508;54.368;18.406;2024-01-25T04:50:47;6.22;;;1.95;;
68315;SDS011;55508;54.368;18.406;2024-01-25T04:53:16;7.30;;;1.63;;
68315;SDS011;55508;54.368;18.406;2024-01-25T04:55:49;6.68;;;1.63;;
68315;SDS011;55508;54.368;18.406;2024-01-25T04:58:17;8.45;;;2.40;;
68315;SDS011;55508;54.368;18.406;2024-01-25T05:00:45;8.35;;;1.80;;
68315;SDS011;55508;54.368;18.406;2024-01-25T05:03:16;8.05;;;2.20;;
68315;SDS011;55508;54.368;18.406;2024-01-25T05:05:43;5.90;;;1.75;;
68315;SDS011;55508;54.368;18.406;2024-01-25T05:08:11;6.65;;;2.40;;
68315;SDS011;55508;54.368;18.406;2024-01-25T05:10:38;6.90;;;2.50;;
68315;SDS011;55508;54.368;18.406;2024-01-25T05:13:06;14.98;;;6.10;;
68315;SDS011;55508;54.368;18.406;2024-01-25T05:15:36;34.20;;;10.15;;
68315;SDS011;55508;54.368;18.406;2024-01-25T05:18:07;66.22;;;19.23;;
68315;SDS011;55508;54.368;18.406;2024-01-25T05:20:34;17.55;;;3.75;;
68315;SDS011;55508;54.368;18.406;2024-01-25T05:23:03;6.07;;;2.50;;
68315;SDS011;55508;54.368;18.406;2024-01-25T05:25:34;4.82;;;1.48;;
68315;SDS011;55508;54.368;18.406;2024-01-25T05:28:02;7.47;;;1.70;;
68315;SDS011;55508;54.368;18.406;2024-01-25T05:30:29;6.40;;;1.38;;
68315;SDS011;55508;54.368;18.406;2024-01-25T05:32:57;2.83;;;1.27;;
68315;SDS011;55508;54.368;18.406;2024-01-25T05:35:24;5.10;;;1.88;;
68315;SDS011;55508;54.368;18.406;2024-01-25T05:37:52;5.30;;;2.15;;
68315;SDS011;55508;54.368;18.406;2024-01-25T05:40:20;3.67;;;1.85;;
68315;SDS011;55508;54.368;18.406;2024-01-25T05:42:47;5.70;;;2.42;;
68315;SDS011;55508;54.368;18.406;2024-01-25T05:45:15;8.98;;;1.77;;
68315;SDS011;55508;54.368;18.406;2024-01-25T05:47:42;4.82;;;1.67;;
68315;SDS011;55508;54.368;18.406;2024-01-25T05:50:10;9.30;;;1.80;;
68315;SDS011;55508;54.368;18.406;2024-01-25T05:52:38;4.10;;;1.45;;
68315;SDS011;55508;54.368;18.406;2024-01-25T05:55:05;7.13;;;1.65;;
68315;SDS011;55508;54.368;18.406;2024-01-25T05:57:34;5.63;;;1.95;;
68315;SDS011;55508;54.368;18.406;2024-01-25T06:00:02;16.98;;;5.55;;
68315;SDS011;55508;54.368;18.406;2024-01-25T06:02:33;10.23;;;3.45;;
68315;SDS011;55508;54.368;18.406;2024-01-25T06:05:01;3.03;;;1.13;;
68315;SDS011;55508;54.368;18.406;2024-01-25T06:07:31;3.47;;;1.58;;
68315;SDS011;55508;54.368;18.406;2024-01-25T06:09:59;7.13;;;1.67;;
68315;SDS011;55508;54.368;18.406;2024-01-25T06:12:26;3.95;;;1.60;;
68315;SDS011;55508;54.368;18.406;2024-01-25T06:14:54;5.53;;;1.92;;
68315;SDS011;55508;54.368;18.406;2024-01-25T06:17:21;8.50;;;2.92;;
68315;SDS011;55508;54.368;18.406;2024-01-25T06:19:49;4.35;;;2.10;;
68315;SDS011;55508;54.368;18.406;2024-01-25T06:22:18;8.40;;;2.10;;
68315;SDS011;55508;54.368;18.406;2024-01-25T06:24:46;4.80;;;1.40;;
68315;SDS011;55508;54.368;18.406;2024-01-25T06:27:13;13.20;;;3.35;;
68315;SDS011;55508;54.368;18.406;2024-01-25T06:29:41;6.45;;;1.70;;
68315;SDS011;55508;54.368;18.406;2024-01-25T06:32:11;12.48;;;2.72;;
68315;SDS011;55508;54.368;18.406;2024-01-25T06:34:48;10.13;;;2.55;;
68315;SDS011;55508;54.368;18.406;2024-01-25T06:37:16;5.93;;;1.52;;
68315;SDS011;55508;54.368;18.406;2024-01-25T06:39:45;10.30;;;2.65;;
68315;SDS011;55508;54.368;18.406;2024-01-25T06:42:16;6.43;;;1.83;;
68315;SDS011;55508;54.368;18.406;2024-01-25T06:44:46;7.15;;;2.28;;
68315;SDS011;55508;54.368;18.406;2024-01-25T06:47:13;7.50;;;1.85;;
68315;SDS011;55508;54.368;18.406;2024-01-25T06:49:41;4.70;;;1.90;;
68315;SDS011;55508;54.368;18.406;2024-01-25T06:52:11;5.05;;;1.65;;
68315;SDS011;55508;54.368;18.406;2024-01-25T06:54:39;6.57;;;1.83;;
68315;SDS011;55508;54.368;18.406;2024-01-25T06:57:06;8.77;;;1.85;;
68315;SDS011;55508;54.368;18.406;2024-01-25T06:59:34;5.68;;;1.50;;
68315;SDS011;55508;54.368;18.406;2024-01-25T07:02:01;9.65;;;2.00;;
68315;SDS011;55508;54.368;18.406;2024-01-25T07:04:30;7.20;;;1.83;;
68315;SDS011;55508;54.368;18.406;2024-01-25T07:06:58;4.05;;;1.27;;
68315;SDS011;55508;54.368;18.406;2024-01-25T07:09:27;7.25;;;1.90;;
68315;SDS011;55508;54.368;18.406;2024-01-25T07:11:54;6.47;;;2.33;;
68315;SDS011;55508;54.368;18.406;2024-01-25T07:14:21;4.40;;;1.27;;
68315;SDS011;55508;54.368;18.406;2024-01-25T07:16:49;7.03;;;1.67;;
68315;SDS011;55508;54.368;18.406;2024-01-25T07:19:17;5.15;;;1.73;;
68315;SDS011;55508;54.368;18.406;2024-01-25T07:21:44;3.67;;;1.30;;
68315;SDS011;55508;54.368;18.406;2024-01-25T07:24:15;2.88;;;0.90;;
68315;SDS011;55508;54.368;18.406;2024-01-25T07:26:42;4.28;;;1.00;;
68315;SDS011;55508;54.368;18.406;2024-01-25T07:29:10;3.58;;;0.60;;
68315;SDS011;55508;54.368;18.406;2024-01-25T07:31:38;2.75;;;0.68;;
68315;SDS011;55508;54.368;18.406;2024-01-25T07:34:05;4.32;;;0.50;;
68315;SDS011;55508;54.368;18.406;2024-01-25T07:36:33;1.05;;;0.55;;
68315;SDS011;55508;54.368;18.406;2024-01-25T07:39:00;0.40;;;0.40;;
68315;SDS011;55508;54.368;18.406;2024-01-25T07:41:29;0.52;;;0.40;;
68315;SDS011;55508;54.368;18.406;2024-01-25T07:43:56;0.95;;;0.45;;
68315;SDS011;55508;54.368;18.406;2024-01-25T07:46:24;1.83;;;0.30;;
68315;SDS011;55508;54.368;18.406;2024-01-25T07:48:51;1.20;;;0.50;;
68315;SDS011;55508;54.368;18.406;2024-01-25T07:51:19;0.82;;;0.50;;
68315;SDS011;55508;54.368;18.406;2024-01-25T07:53:47;0.70;;;0.70;;
68315;SDS011;55508;54.368;18.406;2024-01-25T07:56:14;1.30;;;0.70;;
68315;SDS011;55508;54.368;18.406;2024-01-25T07:58:41;1.88;;;0.73;;
68315;SDS011;55508;54.368;18.406;2024-01-25T08:01:09;1.75;;;1.02;;
68315;SDS011;55508;54.368;18.406;2024-01-25T08:03:36;1.02;;;0.90;;
68315;SDS011;55508;54.368;18.406;2024-01-25T08:06:07;1.00;;;0.75;;
68315;SDS011;55508;54.368;18.406;2024-01-25T08:08:34;0.85;;;0.70;;
68315;SDS011;55508;54.368;18.406;2024-01-25T08:11:05;1.08;;;0.70;;
68315;SDS011;55508;54.368;18.406;2024-01-25T08:13:32;2.75;;;0.85;;
68315;SDS011;55508;54.368;18.406;2024-01-25T08:16:01;1.33;;;0.90;;
68315;SDS011;55508;54.368;18.406;2024-01-25T08:18:29;0.50;;;0.50;;
68315;SDS011;55508;54.368;18.406;2024-01-25T08:20:57;2.03;;;0.80;;
68315;SDS011;55508;54.368;18.406;2024-01-25T08:23:25;0.73;;;0.32;;
68315;SDS011;55508;54.368;18.406;2024-01-25T08:25:55;0.35;;;0.22;;
68315;SDS011;55508;54.368;18.406;2024-01-25T08:28:23;1.23;;;0.40;;
68315;SDS011;55508;54.368;18.406;2024-01-25T08:30:50;1.92;;;0.63;;
68315;SDS011;55508;54.368;18.406;2024-01-25T08:33:18;0.65;;;0.40;;
68315;SDS011;55508;54.368;18.406;2024-01-25T08:35:48;1.63;;;0.60;;
68315;SDS011;55508;54.368;18.406;2024-01-25T08:38:16;1.52;;;0.43;;
68315;SDS011;55508;54.368;18.406;2024-01-25T08:40:44;1.80;;;1.48;;
68315;SDS011;55508;54.368;18.406;2024-01-25T08:43:14;2.10;;;1.90;;
68315;SDS011;55508;54.368;18.406;2024-01-25T08:45:41;4.32;;;3.70;;
68315;SDS011;55508;54.368;18.406;2024-01-25T08:48:12;16.65;;;9.63;;
68315;SDS011;55508;54.368;18.406;2024-01-25T08:50:40;14.57;;;9.55;;
68315;SDS011;55508;54.368;18.406;2024-01-25T08:53:08;11.40;;;6.88;;
68315;SDS011;55508;54.368;18.406;2024-01-25T08:55:35;4.20;;;2.75;;
68315;SDS011;55508;54.368;18.406;2024-01-25T08:58:02;24.77;;;12.52;;
68315;SDS011;55508;54.368;18.406;2024-01-25T09:00:30;10.82;;;8.50;;
68315;SDS011;55508;54.368;18.406;2024-01-25T09:03:00;29.42;;;15.38;;
68315;SDS011;55508;54.368;18.406;2024-01-25T09:05:27;8.00;;;2.45;;
68315;SDS011;55508;54.368;18.406;2024-01-25T09:08:01;3.70;;;1.65;;
68315;SDS011;55508;54.368;18.406;2024-01-25T09:10:29;5.05;;;1.70;;
68315;SDS011;55508;54.368;18.406;2024-01-25T09:12:58;9.73;;;3.65;;
68315;SDS011;55508;54.368;18.406;2024-01-25T09:15:25;4.13;;;1.73;;
68315;SDS011;55508;54.368;18.406;2024-01-25T09:17:53;3.35;;;0.90;;
68315;SDS011;55508;54.368;18.406;2024-01-25T09:20:20;2.55;;;1.33;;
68315;SDS011;55508;54.368;18.406;2024-01-25T09:22:51;3.45;;;1.38;;
68315;SDS011;55508;54.368;18.406;2024-01-25T09:25:22;8.27;;;1.77;;
68315;SDS011;55508;54.368;18.406;2024-01-25T09:27:50;3.38;;;1.38;;
68315;SDS011;55508;54.368;18.406;2024-01-25T09:30:22;1.70;;;0.90;;
68315;SDS011;55508;54.368;18.406;2024-01-25T09:32:50;2.85;;;1.48;;
68315;SDS011;55508;54.368;18.406;2024-01-25T09:35:18;0.85;;;0.60;;
68315;SDS011;55508;54.368;18.406;2024-01-25T09:37:48;1.75;;;0.90;;
68315;SDS011;55508;54.368;18.406;2024-01-25T09:40:19;5.27;;;2.10;;
68315;SDS011;55508;54.368;18.406;2024-01-25T09:42:51;1.67;;;0.93;;
68315;SDS011;55508;54.368;18.406;2024-01-25T09:45:19;2.58;;;0.82;;
68315;SDS011;55508;54.368;18.406;2024-01-25T09:47:47;3.25;;;1.67;;
68315;SDS011;55508;54.368;18.406;2024-01-25T09:50:18;1.95;;;1.40;;
68315;SDS011;55508;54.368;18.406;2024-01-25T09:52:47;1.13;;;0.90;;
68315;SDS011;55508;54.368;18.406;2024-01-25T09:55:24;2.65;;;0.82;;
68315;SDS011;55508;54.368;18.406;2024-01-25T09:57:53;2.55;;;1.20;;
68315;SDS011;55508;54.368;18.406;2024-01-25T10:00:24;2.60;;;1.27;;
68315;SDS011;55508;54.368;18.406;2024-01-25T10:02:52;2.63;;;1.40;;
68315;SDS011;55508;54.368;18.406;2024-01-25T10:05:20;6.55;;;2.10;;
68315;SDS011;55508;54.368;18.406;2024-01-25T10:07:48;1.80;;;1.10;;
68315;SDS011;55508;54.368;18.406;2024-01-25T10:10:16;3.00;;;1.40;;
68315;SDS011;55508;54.368;18.406;2024-01-25T10:12:45;4.13;;;1.88;;
68315;SDS011;55508;54.368;18.406;2024-01-25T10:15:16;4.60;;;2.15;;
68315;SDS011;55508;54.368;18.406;2024-01-25T10:17:43;2.13;;;0.80;;
68315;SDS011;55508;54.368;18.406;2024-01-25T10:20:34;1.92;;;1.30;;
68315;SDS011;55508;54.368;18.406;2024-01-25T10:23:02;1.33;;;1.02;;
68315;SDS011;55508;54.368;18.406;2024-01-25T10:25:30;1.23;;;1.00;;
68315;SDS011;55508;54.368;18.406;2024-01-25T10:28:04;1.27;;;1.00;;
68315;SDS011;55508;54.368;18.406;2024-01-25T10:30:33;1.00;;;0.60;;
68315;SDS011;55508;54.368;18.406;2024-01-25T10:33:01;2.20;;;1.13;;
68315;SDS011;55508;54.368;18.406;2024-01-25T10:35:29;2.10;;;1.00;;
68315;SDS011;55508;54.368;18.406;2024-01-25T10:37:59;1.38;;;1.10;;
68315;SDS011;55508;54.368;18.406;2024-01-25T10:40:27;3.08;;;1.65;;
68315;SDS011;55508;54.368;18.406;2024-01-25T10:42:56;1.55;;;1.10;;
68315;SDS011;55508;54.368;18.406;2024-01-25T10:45:24;0.98;;;0.60;;
68315;SDS011;55508;54.368;18.406;2024-01-25T10:47:52;1.67;;;1.23;;
68315;SDS011;55508;54.368;18.406;2024-01-25T10:50:19;2.33;;;1.27;;
68315;SDS011;55508;54.368;18.406;2024-01-25T10:52:47;5.95;;;2.38;;
68315;SDS011;55508;54.368;18.406;2024-01-25T10:55:15;3.20;;;1.17;;
68315;SDS011;55508;54.368;18.406;2024-01-25T10:57:46;4.70;;;1.10;;
68315;SDS011;55508;54.368;18.406;2024-01-25T11:00:15;2.30;;;0.68;;
68315;SDS011;55508;54.368;18.406;2024-01-25T11:02:46;2.75;;;1.45;;
68315;SDS011;55508;54.368;18.406;2024-01-25T11:05:19;2.83;;;1.38;;
68315;SDS011;55508;54.368;18.406;2024-01-25T11:07:49;4.15;;;1.85;;
68315;SDS011;55508;54.368;18.406;2024-01-25T11:10:22;18.35;;;5.32;;
68315;SDS011;55508;54.368;18.406;2024-01-25T11:13:01;8.50;;;2.65;;
68315;SDS011;55508;54.368;18.406;2024-01-25T11:18:00;4.70;;;2.67;;
68315;SDS011;55508;54.368;18.406;2024-01-25T11:20:28;3.20;;;1.80;;
68315;SDS011;55508;54.368;18.406;2024-01-25T11:23:04;3.20;;;1.58;;
68315;SDS011;55508;54.368;18.406;2024-01-25T11:25:35;3.80;;;2.42;;
68315;SDS011;55508;54.368;18.406;2024-01-25T11:28:04;3.00;;;1.95;;
68315;SDS011;55508;54.368;18.406;2024-01-25T11:30:35;2.40;;;1.33;;
68315;SDS011;55508;54.368;18.406;2024-01-25T11:33:04;2.55;;;1.27;;
68315;SDS011;55508;54.368;18.406;2024-01-25T11:35:32;1.95;;;1.30;;
68315;SDS011;55508;54.368;18.406;2024-01-25T11:38:00;2.20;;;1.20;;
68315;SDS011;55508;54.368;18.406;2024-01-25T11:40:28;1.70;;;1.00;;
68315;SDS011;55508;54.368;18.406;2024-01-25T11:43:04;0.80;;;0.60;;
68315;SDS011;55508;54.368;18.406;2024-01-25T11:45:38;1.38;;;0.98;;
68315;SDS011;55508;54.368;18.406;2024-01-25T11:48:12;2.03;;;1.20;;
68315;SDS011;55508;54.368;18.406;2024-01-25T11:50:42;0.70;;;0.70;;
68315;SDS011;55508;54.368;18.406;2024-01-25T11:53:13;2.13;;;0.93;;
68315;SDS011;55508;54.368;18.406;2024-01-25T11:55:40;2.05;;;0.82;;
68315;SDS011;55508;54.368;18.406;2024-01-25T11:58:07;1.35;;;1.00;;
68315;SDS011;55508;54.368;18.406;2024-01-25T12:00:35;2.03;;;1.05;;
68315;SDS011;55508;54.368;18.406;2024-01-25T12:03:05;1.83;;;1.20;;
68315;SDS011;55508;54.368;18.406;2024-01-25T12:05:33;2.50;;;1.60;;
68315;SDS011;55508;54.368;18.406;2024-01-25T12:08:07;1.15;;;1.00;;
68315;SDS011;55508;54.368;18.406;2024-01-25T12:10:41;3.33;;;1.35;;
68315;SDS011;55508;54.368;18.406;2024-01-25T12:13:11;3.25;;;2.35;;
68315;SDS011;55508;54.368;18.406;2024-01-25T12:15:40;2.42;;;1.90;;
68315;SDS011;55508;54.368;18.406;2024-01-25T12:18:08;0.77;;;0.77;;
68315;SDS011;55508;54.368;18.406;2024-01-25T12:20:38;2.30;;;1.85;;
68315;SDS011;55508;54.368;18.406;2024-01-25T12:23:06;3.47;;;2.47;;
68315;SDS011;55508;54.368;18.406;2024-01-25T12:25:38;12.77;;;8.38;;
68315;SDS011;55508;54.368;18.406;2024-01-25T12:28:07;4.53;;;4.13;;
68315;SDS011;55508;54.368;18.406;2024-01-25T12:30:36;13.00;;;8.65;;
68315;SDS011;55508;54.368;18.406;2024-01-25T12:33:04;4.57;;;4.18;;
68315;SDS011;55508;54.368;18.406;2024-01-25T12:35:32;1.77;;;1.45;;
68315;SDS011;55508;54.368;18.406;2024-01-25T12:38:19;2.55;;;1.75;;
68315;SDS011;55508;54.368;18.406;2024-01-25T12:40:49;2.47;;;1.40;;
68315;SDS011;55508;54.368;18.406;2024-01-25T12:43:20;3.50;;;2.07;;
68315;SDS011;55508;54.368;18.406;2024-01-25T12:45:52;2.85;;;2.00;;
68315;SDS011;55508;54.368;18.406;2024-01-25T12:48:26;2.15;;;1.95;;
68315;SDS011;55508;54.368;18.406;2024-01-25T12:50:53;3.38;;;2.15;;
68315;SDS011;55508;54.368;18.406;2024-01-25T12:53:21;4.15;;;2.28;;
68315;SDS011;55508;54.368;18.406;2024-01-25T12:55:49;3.33;;;2.20;;
68315;SDS011;55508;54.368;18.406;2024-01-25T12:58:16;1.05;;;0.80;;
68315;SDS011;55508;54.368;18.406;2024-01-25T13:00:46;2.28;;;1.17;;
68315;SDS011;55508;54.368;18.406;2024-01-25T13:03:14;3.20;;;2.00;;
68315;SDS011;55508;54.368;18.406;2024-01-25T13:05:42;3.35;;;1.83;;
68315;SDS011;55508;54.368;18.406;2024-01-25T13:08:10;4.60;;;2.83;;
68315;SDS011;55508;54.368;18.406;2024-01-25T13:10:40;3.28;;;2.45;;
68315;SDS011;55508;54.368;18.406;2024-01-25T13:13:10;2.90;;;1.80;;
68315;SDS011;55508;54.368;18.406;2024-01-25T13:15:38;3.70;;;3.05;;
68315;SDS011;55508;54.368;18.406;2024-01-25T13:18:05;3.05;;;1.92;;
68315;SDS011;55508;54.368;18.406;2024-01-25T13:20:33;2.20;;;1.73;;
68315;SDS011;55508;54.368;18.406;2024-01-25T13:23:03;2.30;;;1.08;;
68315;SDS011;55508;54.368;18.406;2024-01-25T13:25:34;2.33;;;1.48;;
68315;SDS011;55508;54.368;18.406;2024-01-25T13:28:01;3.50;;;2.42;;
68315;SDS011;55508;54.368;18.406;2024-01-25T13:30:29;1.33;;;1.17;;
68315;SDS011;55508;54.368;18.406;2024-01-25T13:33:00;1.38;;;0.90;;
68315;SDS011;55508;54.368;18.406;2024-01-25T13:35:27;3.33;;;2.05;;
68315;SDS011;55508;54.368;18.406;2024-01-25T13:37:55;2.05;;;1.40;;
68315;SDS011;55508;54.368;18.406;2024-01-25T13:40:28;2.95;;;2.13;;
68315;SDS011;55508;54.368;18.406;2024-01-25T13:42:57;2.03;;;1.83;;
68315;SDS011;55508;54.368;18.406;2024-01-25T13:45:25;5.47;;;1.95;;
68315;SDS011;55508;54.368;18.406;2024-01-25T13:47:52;4.15;;;2.63;;
68315;SDS011;55508;54.368;18.406;2024-01-25T13:50:20;3.90;;;1.70;;
68315;SDS011;55508;54.368;18.406;2024-01-25T13:52:47;2.78;;;1.40;;
68315;SDS011;55508;54.368;18.406;2024-01-25T13:55:15;1.95;;;1.35;;
68315;SDS011;55508;54.368;18.406;2024-01-25T13:57:43;6.72;;;2.97;;
68315;SDS011;55508;54.368;18.406;2024-01-25T14:00:10;1.88;;;1.17;;
68315;SDS011;55508;54.368;18.406;2024-01-25T14:02:39;2.65;;;1.40;;
68315;SDS011;55508;54.368;18.406;2024-01-25T14:05:15;4.22;;;2.80;;
68315;SDS011;55508;54.368;18.406;2024-01-25T14:07:42;3.70;;;2.67;;
68315;SDS011;55508;54.368;18.406;2024-01-25T14:10:10;2.90;;;1.98;;
68315;SDS011;55508;54.368;18.406;2024-01-25T14:12:37;4.38;;;2.17;;
68315;SDS011;55508;54.368;18.406;2024-01-25T14:15:05;4.70;;;2.25;;
68315;SDS011;55508;54.368;18.406;2024-01-25T14:17:33;3.47;;;2.60;;
68315;SDS011;55508;54.368;18.406;2024-01-25T14:20:03;3.38;;;1.70;;
68315;SDS011;55508;54.368;18.406;2024-01-25T14:22:32;2.30;;;2.10;;
68315;SDS011;55508;54.368;18.406;2024-01-25T14:25:03;3.33;;;1.67;;
68315;SDS011;55508;54.368;18.406;2024-01-25T14:27:32;3.13;;;1.67;;
68315;SDS011;55508;54.368;18.406;2024-01-25T14:30:00;4.30;;;1.75;;
68315;SDS011;55508;54.368;18.406;2024-01-25T14:32:27;2.10;;;1.80;;
68315;SDS011;55508;54.368;18.406;2024-01-25T14:34:58;1.45;;;1.20;;
68315;SDS011;55508;54.368;18.406;2024-01-25T14:37:26;3.58;;;1.50;;
68315;SDS011;55508;54.368;18.406;2024-01-25T14:39:53;1.98;;;1.48;;
68315;SDS011;55508;54.368;18.406;2024-01-25T14:42:41;1.58;;;1.10;;
68315;SDS011;55508;54.368;18.406;2024-01-25T14:45:08;2.20;;;1.50;;